Aquebogue, New York
Current Conditions -  °F | °C
As of 6:53 PM on Monday 22 Dec 2014 (Local Time) from KFOK Reporting Station
Overcast Overcast  
Wind Chill: 43°   Ceiling: 1900
Heat Index: 47°   Visibility: 10mi
Dew Point: 41°   Wind: 9mph
Humidity: 80%   Direction: 80°E
Pressure: 30.25"   Gusts: NA
Location:  40.94°N, 72.61°W
Report Text: KFOK 222353Z 08008KT 10SM OVC019 08/05 A3025 RMK AO2 SLP243 T00830050 10083 20072 55006
Loading
Personal Weather Stations






























Interactive Weather Map New forecast layout! Learn more

10-Day Weather Forecast

Advertisements
Track Severe Weather on mobile